Flight Track Log - Related Links

Times and Time Zones

All times are in EDT time to prevent confusion due to time zone crossing. See the N5085K flight status page for this flight to view local times or setup timezone preferences in your user account.

Time Position Orientation Groundspeed Altitude Reporting Facility
EDT Latitude Longitude Course Direction KTS MPH feet Rate Location/Type
Fri 09:09:57 PM 36.9650 -80.7447 177° South 78 90 6,100  Level Atlanta Center
Fri 09:10:57 PM 36.9419 -80.7431 177° South 83 96 6,400 200 Climbing Atlanta Center
Fri 09:11:57 PM 36.9194 -80.7519 198° South 83 96 6,500 50 Climbing Atlanta Center
Fri 09:12:57 PM 36.8922 -80.7556 186° South 88 101 6,500  Level Atlanta Center
Fri 09:13:57 PM 36.8611 -80.7619 189° South 100 115 6,500  Level Atlanta Center
Fri 09:14:57 PM 36.8342 -80.7658 187° South 100 115 6,500  Level Atlanta Center
Fri 09:15:57 PM 36.8053 -80.7747 194° South 105 121 6,500 50 Level Atlanta Center
Fri 09:16:57 PM 36.7783 -80.7836 195° South 105 121 6,600 50 Climbing Atlanta Center
Fri 09:17:57 PM 36.7514 -80.7900 191° South 105 121 6,600  Level Atlanta Center
Fri 09:18:57 PM 36.7247 -80.8014 199° South 105 121 6,600 -50 Level Atlanta Center
Fri 09:19:57 PM 36.6978 -80.8103 195° South 105 121 6,500  Descending Atlanta Center
Fri 09:20:57 PM 36.6708 -80.8217 199° South 105 121 6,600 50 Climbing Atlanta Center
Fri 09:21:57 PM 36.6439 -80.8278 190° South 105 121 6,600  Level Atlanta Center
Fri 09:22:57 PM 36.6172 -80.8394 199° South 105 121 6,600  Level Atlanta Center
Fri 09:23:57 PM 36.5903 -80.8481 194° South 105 121 6,600  Level Atlanta Center
Fri 09:24:57 PM 36.5633 -80.8569 195° South 105 121 6,600  Level Atlanta Center
Fri 09:25:57 PM 36.5386 -80.8683 200° South 105 121 6,600  Level Atlanta Center
Fri 09:26:57 PM 36.5119 -80.8797 199° South 105 121 6,600  Level Atlanta Center
Fri 09:27:57 PM 36.4828 -80.8861 190° South 105 121 6,600  Level Atlanta Center
Fri 09:28:57 PM 36.4539 -80.8922 190° South 105 121 6,600 -50 Level Atlanta Center
Fri 09:29:57 PM 36.4250 -80.9011 194° South 105 121 6,500  Descending Atlanta Center
Fri 09:30:57 PM 36.3958 -80.9128 198° South 105 121 6,600 50 Climbing Atlanta Center
Fri 09:31:57 PM 36.3650 -80.9242 197° South 105 121 6,600  Level Atlanta Center
Fri 09:32:57 PM 36.3339 -80.9306 189° South 105 121 6,600  Level Atlanta Center
Fri 09:33:57 PM 36.3069 -80.9367 190° South 105 121 6,600 -250 Level Atlanta Center
Fri 09:34:57 PM 36.2758 -80.9508 200° South 110 127 6,100 -550 Descending Atlanta Center
Fri 09:35:57 PM 36.2450 -80.9622 197° South 110 127 5,500 -550 Descending Atlanta Center
Fri 09:36:57 PM 36.2161 -80.9736 198° South 105 121 5,000 -250 Descending Atlanta Center
Fri 09:37:57 PM 36.1892 -80.9825 195° South 105 121 5,000  Level Atlanta Center
Fri 09:38:57 PM 36.1603 -80.9911 194° South 105 121 5,000  Level Atlanta Center
Fri 09:39:57 PM 36.1333 -80.9975 191° South 105 121 5,000 50 Level Atlanta Center
Fri 09:40:57 PM 36.1064 -81.0061 194° South 105 121 5,100 50 Climbing Atlanta Center
Fri 09:41:57 PM 36.0794 -81.0147 194° South 105 121 5,100  Level Atlanta Center
Fri 09:42:57 PM 36.0483 -81.0264 197° South 105 121 5,100 -50 Level Atlanta Center
Fri 09:43:57 PM 36.0194 -81.0325 190° South 105 121 5,000 -50 Descending Atlanta Center
Fri 09:44:57 PM 35.9903 -81.0386 190° South 105 121 5,000  Level Atlanta Center
Fri 09:45:57 PM 35.9633 -81.0475 195° South 105 121 5,000  Level Atlanta Center
Fri 09:46:57 PM 35.9344 -81.0536 190° South 105 121 5,000  Level Atlanta Center
Fri 09:47:57 PM 35.9033 -81.0625 193° South 105 121 5,000  Level Atlanta Center
Fri 09:48:57 PM 35.8783 -81.0683 191° South 105 121 5,000  Level Atlanta Center
Fri 09:49:57 PM 35.8514 -81.0772 195° South 105 121 5,000  Level Atlanta Center
Fri 09:50:57 PM 35.8244 -81.0806 186° South 105 121 5,000  Level Atlanta Center
Fri 09:51:57 PM 35.7972 -81.0792 178° South 98 113 5,000 -250 Level Atlanta Center
Fri 09:52:57 PM 35.7661 -81.0828 185° South 106 122 4,500 -500 Descending Atlanta Center
Fri 09:53:57 PM 35.7350 -81.0864 185° South 106 122 4,000 -400 Descending Atlanta Center
Fri 09:54:57 PM 35.7058 -81.0928 190° South 111 128 3,700 -300 Descending Atlanta Center
Fri 09:55:57 PM 35.6808 -81.0986 191° South 105 121 3,400 -200 Descending Atlanta Center
Fri 09:56:57 PM 35.6539 -81.1047 190° South 105 121 3,300 -50 Descending Atlanta Center
Fri 09:57:57 PM 35.6292 -81.1133 196° South 105 121 3,300 -50 Level Atlanta Center
Fri 09:58:57 PM 35.6022 -81.1244 199° South 105 121 3,200 -100 Descending Atlanta Center
Fri 10:00:00 PM 35.5730 -81.1275 185° South  Level FlightAware Approximate
Fri 10:07:00 PM 35.4833 -81.1612 195° South  Level Estimated
Fri 10:08:00 PM 35.4833 -81.1612 195° South  Level Estimated
Fri 10:09:00 PM 35.4833 -81.1612 195° South  Level Estimated
Fri 10:10:00 PM 35.4833 -81.1612 195° South  Level Estimated
Fri 10:11:00 PM 35.4833 -81.1612 195° South  Level Estimated
Fri 10:12:00 PM 35.4833 -81.1612 195° South  Level Estimated

Login

Don't have an account? Register now (free) for customized features, flight alerts, and more!